Orlando, Florida
Traffic Map
Current Weather Conditions
Orlando, Florida
Clear
Clear
21°
Feels Like: 21°
Wind Chill: 21° Ceiling: Unl
Heat Index: 21° Visibility: 10mi
Dew Point: 18° Wind: 7mph
Humidity: 81% Direction: 300° (WNW)
Pressure: 29.95in Gusts: 0mph
Raw Report DataKORL 240553Z AUTO 30006KT 10SM CLR 21/18 A2995 RMK AO2 SLP144 T02110178 10278 20211 58003
Traffic Incident Summary
Active as of:
Severity:
Category:
InformationThere was an issue retrieving the traffic information for this location. Please try a different location or try again shortly.
Advertisements
At Last! Intellicast now available for iPhone and Android